createdAt,value
2022-08-19T00:01:46.835Z,100512.44
2022-08-19T00:04:23.961Z,100516.06
2022-08-19T00:06:52.993Z,100519.53
2022-08-19T00:09:23.520Z,100515.91
2022-08-19T00:11:52.733Z,100513.22
2022-08-19T00:14:22.914Z,100514.03
2022-08-19T00:16:52.525Z,100533.41
2022-08-19T00:19:21.102Z,100538.72
2022-08-19T00:21:49.685Z,100533.41
2022-08-19T00:24:18.467Z,100528.13
2022-08-19T00:26:47.418Z,100525.47
2022-08-19T00:29:17.934Z,100516.72
2022-08-19T00:31:48.164Z,100514.13
2022-08-19T00:34:19.368Z,100522.94
2022-08-19T00:36:48.224Z,100526.50
2022-08-19T00:39:19.176Z,100507.22
2022-08-19T00:41:50.563Z,100505.47
2022-08-19T00:44:26.748Z,100498.34
2022-08-19T00:47:01.106Z,100501.06
2022-08-19T00:49:33.712Z,100502.03
2022-08-19T00:52:06.747Z,100495.19
2022-08-19T00:54:35.671Z,100498.66
2022-08-19T00:57:08.355Z,100490.06
2022-08-19T00:59:56.226Z,100495.41
2022-08-19T01:02:30.245Z,100491.97
2022-08-19T01:04:59.359Z,100504.47
2022-08-19T01:07:28.061Z,100510.63
2022-08-19T01:10:07.689Z,100506.38
2022-08-19T01:12:37.301Z,100509.97
2022-08-19T01:15:08.154Z,100510.00
2022-08-19T01:17:41.889Z,100511.13
2022-08-19T01:20:13.607Z,100534.78
2022-08-19T01:22:46.892Z,100529.53
2022-08-19T01:25:17.157Z,100530.34
2022-08-19T01:27:48.500Z,100537.47
2022-08-19T01:30:21.117Z,100529.56
2022-08-19T01:32:49.757Z,100534.88
2022-08-19T01:35:19.269Z,100541.88
2022-08-19T01:37:52.919Z,100531.41
2022-08-19T01:40:24.089Z,100532.16
2022-08-19T01:42:54.004Z,100533.09
2022-08-19T01:45:26.117Z,100516.34
2022-08-19T01:48:01.757Z,100519.09
2022-08-19T01:50:32.297Z,100531.44
2022-08-19T01:53:06.845Z,100528.00
2022-08-19T01:55:41.020Z,100513.97
2022-08-19T01:58:17.204Z,100516.63
2022-08-19T02:00:46.278Z,100514.91
2022-08-19T02:03:15.284Z,100510.50
2022-08-19T02:05:45.197Z,100482.31
2022-08-19T02:08:15.233Z,100485.06
2022-08-19T02:10:45.649Z,100480.81
2022-08-19T02:13:14.760Z,100484.38
2022-08-19T02:15:44.178Z,100447.53
2022-08-19T02:18:12.734Z,100422.94
2022-08-19T02:20:43.026Z,100422.06
2022-08-19T02:23:13.805Z,100416.00
2022-08-19T02:25:48.959Z,100410.72
2022-08-19T02:28:18.948Z,100417.94
2022-08-19T02:30:48.914Z,100417.03
2022-08-19T02:33:18.294Z,100413.47
2022-08-19T02:35:48.556Z,100416.13
2022-08-19T02:38:29.616Z,100424.16
2022-08-19T02:41:01.975Z,100421.50
2022-08-19T02:43:34.373Z,100425.00
2022-08-19T02:46:03.756Z,100414.41
2022-08-19T02:48:33.954Z,100426.72
2022-08-19T02:51:02.633Z,100437.28
2022-08-19T02:53:31.465Z,100435.53
2022-08-19T02:56:01.365Z,100432.88
2022-08-19T02:58:30.213Z,100440.81
2022-08-19T03:00:59.565Z,100442.56
2022-08-19T03:03:28.864Z,100443.44
2022-08-19T03:06:13.731Z,100443.44
2022-08-19T03:08:43.526Z,100446.06
2022-08-19T03:11:17.392Z,100451.34
2022-08-19T03:13:46.401Z,100441.72
2022-08-19T03:16:15.024Z,100431.19
2022-08-19T03:18:43.873Z,100433.03
2022-08-19T03:21:17.924Z,100430.38
2022-08-19T03:23:46.307Z,100425.19
2022-08-19T03:26:17.235Z,100419.91
2022-08-19T03:28:57.789Z,100416.41
2022-08-19T03:31:44.155Z,100422.47
2022-08-19T03:34:20.831Z,100424.28
2022-08-19T03:36:49.658Z,100420.88
2022-08-19T03:39:19.112Z,100423.50
2022-08-19T03:42:38.423Z,100420.94
2022-08-19T03:44:39.804Z,100416.50
2022-08-19T03:47:08.890Z,100416.50
2022-08-19T03:49:37.783Z,100423.53
2022-08-19T03:52:08.613Z,100421.78
2022-08-19T03:54:39.032Z,100425.34
2022-08-19T03:57:10.178Z,100425.34
2022-08-19T03:59:40.442Z,100423.59
2022-08-19T04:02:11.405Z,100420.97
2022-08-19T04:04:41.629Z,100412.16
2022-08-19T04:07:11.266Z,100420.09
2022-08-19T04:09:39.886Z,100417.44
2022-08-19T04:12:11.046Z,100431.53
2022-08-19T04:14:40.467Z,100427.97
2022-08-19T04:17:09.132Z,100434.09
2022-08-19T04:19:39.565Z,100437.72
2022-08-19T04:22:08.911Z,100442.91
2022-08-19T04:24:37.727Z,100440.28
2022-08-19T04:27:07.077Z,100440.31
2022-08-19T04:29:40.544Z,100443.81
2022-08-19T04:32:10.118Z,100451.72
2022-08-19T04:35:02.407Z,100442.06
2022-08-19T04:37:35.498Z,100435.88
2022-08-19T04:40:25.342Z,100445.44
2022-08-19T04:42:54.899Z,100440.16
2022-08-19T04:45:25.173Z,100444.63
2022-08-19T04:48:27.385Z,100439.25
2022-08-19T04:50:46.998Z,100435.75
2022-08-19T04:53:15.657Z,100447.16
2022-08-19T04:55:45.112Z,100449.00
2022-08-19T04:58:13.617Z,100444.53
2022-08-19T05:00:43.646Z,100440.13
2022-08-19T05:03:12.410Z,100433.94
2022-08-19T05:05:44.842Z,100427.75
2022-08-19T05:08:19.474Z,100430.34
2022-08-19T05:11:00.789Z,100429.44
2022-08-19T05:13:29.476Z,100434.72
2022-08-19T05:16:01.409Z,100428.53
2022-08-19T05:18:47.292Z,100418.81
2022-08-19T05:21:36.173Z,100426.78
2022-08-19T05:24:09.501Z,100417.94
2022-08-19T05:26:38.482Z,100406.38
2022-08-19T05:29:08.457Z,100416.00
2022-08-19T05:31:41.870Z,100416.91
2022-08-19T05:34:20.282Z,100403.69
2022-08-19T05:36:50.298Z,100409.81
2022-08-19T05:39:22.828Z,100407.13
2022-08-19T05:41:58.035Z,100410.56
2022-08-19T05:44:27.374Z,100410.50
2022-08-19T05:46:57.409Z,100420.09
2022-08-19T05:49:26.979Z,100419.22
2022-08-19T05:51:56.995Z,100424.41
2022-08-19T05:54:26.192Z,100422.69
2022-08-19T05:56:55.933Z,100418.19
2022-08-19T05:59:25.198Z,100419.88
2022-08-19T06:01:55.382Z,100422.50
2022-08-19T06:04:26.336Z,100433.88
2022-08-19T06:06:55.772Z,100425.91
2022-08-19T06:09:25.665Z,100432.94
2022-08-19T06:11:56.258Z,100443.44
2022-08-19T06:14:27.787Z,100441.78
2022-08-19T06:16:56.825Z,100447.75
2022-08-19T06:19:27.286Z,100447.72
2022-08-19T06:21:55.881Z,100439.78
2022-08-19T06:24:26.347Z,100429.25
2022-08-19T06:27:00.738Z,100438.78
2022-08-19T06:29:32.008Z,100434.28
2022-08-19T06:32:03.522Z,100431.53
2022-08-19T06:34:36.281Z,100434.16
2022-08-19T06:37:06.669Z,100434.97
2022-08-19T06:39:40.341Z,100426.06
2022-08-19T06:42:12.457Z,100438.25
2022-08-19T06:44:43.827Z,100447.69
2022-08-19T06:47:23.678Z,100459.00
2022-08-19T06:50:01.234Z,100468.56
2022-08-19T06:52:34.032Z,100473.88
2022-08-19T06:55:05.853Z,100467.59
2022-08-19T06:57:35.990Z,100469.25
2022-08-19T07:00:07.908Z,100466.53
2022-08-19T07:02:39.052Z,100477.94
2022-08-19T07:05:11.482Z,100485.84
2022-08-19T07:07:44.139Z,100491.94
2022-08-19T07:10:16.352Z,100495.44
2022-08-19T07:12:45.660Z,100499.84
2022-08-19T07:15:16.566Z,100490.97
2022-08-19T07:17:45.169Z,100476.75
2022-08-19T07:20:18.525Z,100466.03
2022-08-19T07:22:47.340Z,100474.66
2022-08-19T07:25:17.041Z,100474.56
2022-08-19T07:27:46.552Z,100485.09
2022-08-19T07:30:24.178Z,100486.69
2022-08-19T07:32:55.031Z,100488.34
2022-08-19T07:35:26.736Z,100495.34
2022-08-19T07:37:55.371Z,100504.94
2022-08-19T07:40:24.477Z,100504.00
2022-08-19T07:42:53.010Z,100512.88
2022-08-19T07:45:21.619Z,100509.41
2022-08-19T07:47:51.378Z,100517.34
2022-08-19T07:50:21.039Z,100514.59
2022-08-19T07:52:51.561Z,100510.13
2022-08-19T07:55:41.389Z,100513.63
2022-08-19T07:58:13.177Z,100515.25
2022-08-19T08:00:42.102Z,100514.22
2022-08-19T08:03:10.842Z,100523.94
2022-08-19T08:06:02.125Z,100522.13
2022-08-19T08:08:49.991Z,100528.31
2022-08-19T08:11:21.103Z,100534.44
2022-08-19T08:14:00.351Z,100540.66
2022-08-19T08:16:32.166Z,100547.69
2022-08-19T08:19:01.407Z,100551.97
2022-08-19T08:21:30.010Z,100555.50
2022-08-19T08:26:29.676Z,100551.78
2022-08-19T08:29:02.475Z,100551.66
2022-08-19T08:31:41.560Z,100557.88
2022-08-19T08:34:10.453Z,100551.63
2022-08-19T08:36:42.529Z,100553.03
2022-08-19T08:39:13.927Z,100546.84
2022-08-19T08:41:49.293Z,100558.00
2022-08-19T08:44:22.414Z,100556.91
2022-08-19T08:46:56.247Z,100554.06
2022-08-19T08:49:35.772Z,100558.41
2022-08-19T08:52:07.820Z,100553.81
2022-08-19T08:54:48.866Z,100566.81
2022-08-19T08:57:34.864Z,100561.44
2022-08-19T09:00:15.469Z,100549.81
2022-08-19T09:02:44.950Z,100566.69
2022-08-19T09:05:25.942Z,100570.22
2022-08-19T09:08:02.756Z,100570.50
2022-08-19T09:10:44.178Z,100574.94
2022-08-19T09:13:37.355Z,100565.16
2022-08-19T09:16:09.794Z,100563.34
2022-08-19T09:18:43.400Z,100563.19
2022-08-19T09:21:12.592Z,100551.34
2022-08-19T09:23:41.790Z,100553.78
2022-08-19T09:26:16.516Z,100539.69
2022-08-19T09:28:48.664Z,100542.97
2022-08-19T09:31:20.249Z,100547.81
2022-08-19T09:33:48.849Z,100544.59
2022-08-19T09:36:31.270Z,100555.72
2022-08-19T09:39:05.050Z,100556.59
2022-08-19T09:41:47.661Z,100552.09
2022-08-19T09:44:18.842Z,100544.84
2022-08-19T09:46:48.387Z,100542.13
2022-08-19T09:49:19.284Z,100548.63
2022-08-19T09:51:52.728Z,100540.84
2022-08-19T09:54:23.635Z,100541.88
2022-08-19T09:56:55.368Z,100543.59
2022-08-19T09:59:24.222Z,100555.19
2022-08-19T10:01:53.197Z,100543.59
2022-08-19T10:04:23.135Z,100554.22
2022-08-19T10:06:58.165Z,100541.72
2022-08-19T10:09:35.391Z,100547.94
2022-08-19T10:12:07.014Z,100548.69
2022-08-19T10:14:40.438Z,100548.81
2022-08-19T10:17:19.276Z,100540.97
2022-08-19T10:19:55.028Z,100547.84
2022-08-19T10:22:25.797Z,100537.16
2022-08-19T10:24:55.146Z,100549.44
2022-08-19T10:27:26.259Z,100543.19
2022-08-19T10:29:55.402Z,100538.91
2022-08-19T10:32:33.807Z,100540.00
2022-08-19T10:35:06.050Z,100534.78
2022-08-19T10:37:35.294Z,100525.94
2022-08-19T10:40:06.165Z,100528.59
2022-08-19T10:42:37.229Z,100523.19
2022-08-19T10:45:08.078Z,100531.19
2022-08-19T10:47:36.791Z,100535.81
2022-08-19T10:50:28.508Z,100538.56
2022-08-19T10:52:57.568Z,100539.50
2022-08-19T10:55:44.034Z,100542.22
2022-08-19T10:58:16.124Z,100545.72
2022-08-19T11:00:45.511Z,100548.34
2022-08-19T11:03:14.271Z,100540.41
2022-08-19T11:05:43.220Z,100536.91
2022-08-19T11:08:23.538Z,100542.06
2022-08-19T11:11:00.273Z,100550.75
2022-08-19T11:13:30.569Z,100560.41
2022-08-19T11:16:03.992Z,100548.22
2022-08-19T11:18:40.921Z,100554.41
2022-08-19T11:21:13.109Z,100558.00
2022-08-19T11:23:41.995Z,100566.88
2022-08-19T11:26:10.691Z,100561.66
2022-08-19T11:28:40.917Z,100559.19
2022-08-19T11:31:13.738Z,100553.91
2022-08-19T11:33:47.601Z,100564.44
2022-08-19T11:36:17.489Z,100561.81
2022-08-19T11:38:46.415Z,100566.13
2022-08-19T11:41:15.161Z,100562.44
2022-08-19T11:43:45.432Z,100559.81
2022-08-19T11:46:15.868Z,100565.13
2022-08-19T11:48:44.664Z,100567.78
2022-08-19T11:51:16.125Z,100569.63
2022-08-19T11:53:44.962Z,100559.00
2022-08-19T11:56:14.507Z,100575.75
2022-08-19T11:58:44.720Z,100586.31
2022-08-19T12:01:17.085Z,100589.69
2022-08-19T12:03:47.219Z,100589.69
2022-08-19T12:06:18.241Z,100596.81
2022-08-19T12:08:47.125Z,100594.97
2022-08-19T12:11:15.955Z,100598.56
2022-08-19T12:13:47.185Z,100591.50
2022-08-19T12:16:18.034Z,100594.88
2022-08-19T12:18:47.312Z,100590.28
2022-08-19T12:21:16.567Z,100589.19
2022-08-19T12:23:46.441Z,100599.59
2022-08-19T12:26:15.385Z,100594.00
2022-08-19T12:28:45.573Z,100601.72
2022-08-19T12:31:14.245Z,100600.84
2022-08-19T12:33:43.576Z,100599.63
2022-08-19T12:36:15.225Z,100599.38
2022-08-19T12:38:45.100Z,100600.13
2022-08-19T12:41:15.496Z,100599.47
2022-08-19T12:43:45.472Z,100606.84
2022-08-19T12:46:15.210Z,100602.38
2022-08-19T12:48:46.647Z,100594.88
2022-08-19T12:51:18.746Z,100593.81
2022-08-19T12:53:48.225Z,100592.38
2022-08-19T12:56:21.146Z,100593.81
2022-08-19T12:58:53.348Z,100593.91
2022-08-19T13:01:22.931Z,100588.91
2022-08-19T13:03:54.226Z,100589.25
2022-08-19T13:06:22.963Z,100599.97
2022-08-19T13:08:51.988Z,100606.91
2022-08-19T13:11:25.464Z,100606.00
2022-08-19T13:13:56.252Z,100605.00
2022-08-19T13:16:24.956Z,100609.50
2022-08-19T13:18:53.993Z,100600.63
2022-08-19T13:21:24.350Z,100609.84
2022-08-19T13:23:53.711Z,100610.34
2022-08-19T13:26:22.636Z,100610.44
2022-08-19T13:29:08.985Z,100607.91
2022-08-19T13:31:59.922Z,100604.59
2022-08-19T13:34:33.943Z,100607.41
2022-08-19T13:37:05.097Z,100601.16
2022-08-19T13:39:34.941Z,100604.03
2022-08-19T13:42:05.301Z,100597.84
2022-08-19T13:44:34.667Z,100601.78
2022-08-19T13:47:08.102Z,100599.25
2022-08-19T13:49:38.357Z,100594.06
2022-08-19T13:52:07.642Z,100597.56
2022-08-19T13:54:36.455Z,100602.97
2022-08-19T13:57:05.782Z,100597.66
2022-08-19T13:59:34.616Z,100600.94
2022-08-19T14:02:06.509Z,100594.09
2022-08-19T14:04:35.185Z,100603.94
2022-08-19T14:07:04.381Z,100597.78
2022-08-19T14:09:33.024Z,100590.00
2022-08-19T14:12:01.601Z,100595.25
2022-08-19T14:14:30.277Z,100592.72
2022-08-19T14:16:58.899Z,100591.94
2022-08-19T14:19:30.141Z,100587.53
2022-08-19T14:21:59.212Z,100587.41
2022-08-19T14:24:27.817Z,100587.34
2022-08-19T14:26:56.390Z,100596.97
2022-08-19T14:29:24.960Z,100596.69
2022-08-19T14:31:53.649Z,100594.03
2022-08-19T14:34:23.197Z,100594.22
2022-08-19T14:36:53.432Z,100597.69
2022-08-19T14:39:22.442Z,100594.22
2022-08-19T14:41:51.598Z,100604.78
2022-08-19T14:44:20.540Z,100603.94
2022-08-19T14:46:49.515Z,100596.75
2022-08-19T14:49:19.467Z,100590.66
2022-08-19T14:51:48.702Z,100597.94
2022-08-19T14:54:18.753Z,100597.22
2022-08-19T14:56:47.433Z,100604.50
2022-08-19T14:59:16.218Z,100600.94
2022-08-19T15:01:45.171Z,100604.50
2022-08-19T15:04:13.795Z,100609.94
2022-08-19T15:06:43.422Z,100620.47
2022-08-19T15:09:12.039Z,100620.50
2022-08-19T15:11:41.949Z,100623.31
2022-08-19T15:14:11.106Z,100637.31
2022-08-19T15:16:40.463Z,100635.56
2022-08-19T15:19:09.289Z,100641.00
2022-08-19T15:21:38.433Z,100638.66
2022-08-19T15:24:07.552Z,100646.69
2022-08-19T15:26:36.173Z,100645.00
2022-08-19T15:29:06.875Z,100644.00
2022-08-19T15:31:38.133Z,100639.50
2022-08-19T15:34:08.004Z,100653.84
2022-08-19T15:36:37.316Z,100644.50
2022-08-19T15:39:07.301Z,100659.63
2022-08-19T15:41:37.082Z,100662.28
2022-08-19T15:44:10.837Z,100666.72
2022-08-19T15:46:41.272Z,100669.31
2022-08-19T15:49:12.750Z,100662.28
2022-08-19T15:51:43.339Z,100662.28
2022-08-19T15:54:15.550Z,100651.75
2022-08-19T15:57:07.789Z,100642.19
2022-08-19T15:59:57.005Z,100647.72
2022-08-19T16:02:47.888Z,100655.84
2022-08-19T16:05:37.407Z,100655.97
2022-08-19T16:08:07.936Z,100649.88
2022-08-19T16:10:38.393Z,100643.81
2022-08-19T16:13:07.330Z,100643.81
2022-08-19T16:15:37.466Z,100648.34
2022-08-19T16:18:06.092Z,100638.88
2022-08-19T16:20:35.898Z,100646.16
2022-08-19T16:23:05.276Z,100640.13
2022-08-19T16:25:33.911Z,100649.94
2022-08-19T16:28:08.050Z,100646.53
2022-08-19T16:30:41.280Z,100659.78
2022-08-19T16:33:10.397Z,100656.13
2022-08-19T16:35:39.894Z,100656.06
2022-08-19T16:38:08.652Z,100653.66
2022-08-19T16:40:37.650Z,100650.19
2022-08-19T16:43:09.818Z,100654.53
2022-08-19T16:45:39.888Z,100656.34
2022-08-19T16:48:12.663Z,100663.34
2022-08-19T16:50:49.298Z,100664.16
2022-08-19T16:53:20.405Z,100665.13
2022-08-19T16:55:50.802Z,100658.97
2022-08-19T16:58:19.470Z,100666.94
2022-08-19T17:00:50.317Z,100669.56
2022-08-19T17:03:35.616Z,100665.28
2022-08-19T17:06:18.450Z,100668.06
2022-08-19T17:08:49.649Z,100660.16
2022-08-19T17:11:19.314Z,100655.69
2022-08-19T17:13:50.783Z,100655.84
2022-08-19T17:16:24.638Z,100647.88
2022-08-19T17:18:54.156Z,100648.06
2022-08-19T17:21:27.747Z,100646.34
2022-08-19T17:23:56.928Z,100656.97
2022-08-19T17:26:26.436Z,100659.56
2022-08-19T17:28:56.711Z,100665.03
2022-08-19T17:31:29.282Z,100666.03
2022-08-19T17:33:59.081Z,100667.06
2022-08-19T17:36:29.377Z,100664.38
2022-08-19T17:39:00.603Z,100668.09
2022-08-19T17:41:30.498Z,100662.75
2022-08-19T17:43:59.261Z,100667.31
2022-08-19T17:46:30.182Z,100669.25
2022-08-19T17:48:59.315Z,100679.84
2022-08-19T17:51:42.463Z,100677.19
2022-08-19T17:54:12.952Z,100687.91
2022-08-19T17:56:41.824Z,100697.69
2022-08-19T17:59:13.835Z,100687.16
2022-08-19T18:01:53.889Z,100684.66
2022-08-19T18:04:25.045Z,100694.50
2022-08-19T18:06:55.625Z,100688.41
2022-08-19T18:09:26.700Z,100692.00
2022-08-19T18:11:57.279Z,100694.66
2022-08-19T18:14:33.838Z,100702.66
2022-08-19T18:17:09.287Z,100701.84
2022-08-19T18:19:42.188Z,100703.66
2022-08-19T18:22:13.717Z,100708.97
2022-08-19T18:24:42.961Z,100721.28
2022-08-19T18:27:15.145Z,100704.47
2022-08-19T18:29:43.960Z,100703.56
2022-08-19T18:32:14.251Z,100710.56
2022-08-19T18:34:45.894Z,100725.56
2022-08-19T18:37:14.603Z,100715.06
2022-08-19T18:40:00.558Z,100711.53
2022-08-19T18:42:46.704Z,100721.19
2022-08-19T18:45:32.778Z,100734.50
2022-08-19T18:48:27.029Z,100738.06
2022-08-19T18:51:01.401Z,100744.19
2022-08-19T18:53:31.978Z,100748.56
2022-08-19T18:56:00.780Z,100752.00
2022-08-19T18:58:34.450Z,100754.75
2022-08-19T19:01:11.108Z,100748.69
2022-08-19T19:03:45.677Z,100749.59
2022-08-19T19:06:15.013Z,100763.78
2022-08-19T19:08:43.944Z,100767.31
2022-08-19T19:11:12.551Z,100768.19
2022-08-19T19:13:41.716Z,100767.28
2022-08-19T19:16:12.485Z,100773.47
2022-08-19T19:18:42.752Z,100777.94
2022-08-19T19:21:12.348Z,100784.09
2022-08-19T19:23:42.441Z,100785.00
2022-08-19T19:26:13.085Z,100788.50
2022-08-19T19:28:45.610Z,100785.00
2022-08-19T19:31:16.638Z,100782.31
2022-08-19T19:33:47.570Z,100786.81
2022-08-19T19:36:16.345Z,100787.69
2022-08-19T19:38:48.494Z,100785.09
2022-08-19T19:41:23.419Z,100788.69
2022-08-19T19:44:09.928Z,100798.41
2022-08-19T19:46:42.675Z,100801.03
2022-08-19T19:49:13.721Z,100800.19
2022-08-19T19:51:43.430Z,100804.59
2022-08-19T19:54:13.928Z,100806.38
2022-08-19T19:56:46.239Z,100800.25
2022-08-19T19:59:15.291Z,100800.22
2022-08-19T20:01:46.129Z,100793.19
2022-08-19T20:04:18.890Z,100798.41
2022-08-19T20:06:47.897Z,100801.94
2022-08-19T20:09:19.661Z,100805.50
2022-08-19T20:11:53.463Z,100796.63
2022-08-19T20:14:23.094Z,100793.13
2022-08-19T20:16:52.971Z,100807.25
2022-08-19T20:19:26.550Z,100805.50
2022-08-19T20:21:57.550Z,100819.69
2022-08-19T20:24:28.652Z,100807.38
2022-08-19T20:26:57.253Z,100803.91
2022-08-19T20:29:38.837Z,100805.72
2022-08-19T20:32:09.424Z,100796.84
2022-08-19T20:34:40.064Z,100793.25
2022-08-19T20:37:09.413Z,100784.47
2022-08-19T20:39:39.125Z,100787.94
2022-08-19T20:42:08.138Z,100788.88
2022-08-19T20:44:37.813Z,100783.56
2022-08-19T20:47:06.784Z,100780.09
2022-08-19T20:49:35.842Z,100788.03
2022-08-19T20:52:07.048Z,100779.22
2022-08-19T20:54:35.869Z,100795.13
2022-08-19T20:57:05.510Z,100781.84
2022-08-19T20:59:34.433Z,100788.06
2022-08-19T21:02:03.061Z,100786.31
2022-08-19T21:04:31.737Z,100775.72
2022-08-19T21:07:00.368Z,100769.50
2022-08-19T21:09:30.384Z,100757.09
2022-08-19T21:11:58.899Z,100765.91
2022-08-19T21:14:27.444Z,100771.19
2022-08-19T21:16:55.985Z,100769.47
2022-08-19T21:19:24.515Z,100773.06
2022-08-19T21:21:53.494Z,100769.56
2022-08-19T21:24:26.317Z,100766.97
2022-08-19T21:27:01.441Z,100780.25
2022-08-19T21:29:32.143Z,100792.66
2022-08-19T21:32:00.781Z,100806.91
2022-08-19T21:34:29.624Z,100809.66
2022-08-19T21:36:58.270Z,100818.56
2022-08-19T21:39:26.824Z,100821.25
2022-08-19T21:41:55.435Z,100819.53
2022-08-19T21:44:25.433Z,100816.84
2022-08-19T21:46:54.064Z,100807.13
2022-08-19T21:49:22.617Z,100794.81
2022-08-19T21:51:51.683Z,100794.81
2022-08-19T21:54:20.220Z,100794.81
2022-08-19T21:56:48.857Z,100800.09
2022-08-19T21:59:17.914Z,100793.13
2022-08-19T22:01:50.574Z,100794.94
2022-08-19T22:04:25.580Z,100800.22
2022-08-19T22:06:56.252Z,100801.16
2022-08-19T22:09:24.861Z,100807.28
2022-08-19T22:11:53.433Z,100793.13
2022-08-19T22:14:21.959Z,100787.00
2022-08-19T22:16:51.927Z,100782.56
2022-08-19T22:19:20.495Z,100777.25
2022-08-19T22:21:49.101Z,100778.16
2022-08-19T22:24:17.645Z,100770.25
2022-08-19T22:26:46.193Z,100772.00
2022-08-19T22:29:17.233Z,100766.69
2022-08-19T22:31:46.029Z,100769.34
2022-08-19T22:34:24.952Z,100778.06
2022-08-19T22:36:53.615Z,100778.97
2022-08-19T22:39:22.150Z,100790.38
2022-08-19T22:41:50.769Z,100782.47
2022-08-19T22:44:19.444Z,100787.78
2022-08-19T22:46:48.064Z,100786.09
2022-08-19T22:49:16.604Z,100790.50
2022-08-19T22:52:04.232Z,100782.50
2022-08-19T22:54:33.673Z,100774.63
2022-08-19T22:57:02.209Z,100773.78
2022-08-19T22:59:30.992Z,100775.53
2022-08-19T23:01:59.583Z,100769.41
2022-08-19T23:04:28.298Z,100772.06
2022-08-19T23:06:58.248Z,100767.69
2022-08-19T23:09:30.400Z,100767.69
2022-08-19T23:11:59.254Z,100768.59
2022-08-19T23:14:28.114Z,100774.81
2022-08-19T23:16:59.069Z,100769.44
2022-08-19T23:19:28.397Z,100770.38
2022-08-19T23:21:58.793Z,100775.72
2022-08-19T23:24:27.516Z,100774.94
2022-08-19T23:27:13.681Z,100789.97
2022-08-19T23:29:59.378Z,100793.50
2022-08-19T23:32:27.971Z,100793.53
2022-08-19T23:34:57.224Z,100795.31
2022-08-19T23:37:29.792Z,100802.34
2022-08-19T23:39:58.441Z,100791.78
2022-08-19T23:42:27.027Z,100787.38
2022-08-19T23:45:01.543Z,100787.38
2022-08-19T23:47:31.954Z,100786.53
2022-08-19T23:50:05.754Z,100781.28
2022-08-19T23:52:42.966Z,100764.56
2022-08-19T23:55:12.336Z,100767.22
2022-08-19T23:57:41.019Z,100752.28
